Time;durP1;ratioP1;P1;durP2;ratioP2;P2;SDS_P1;SDS_P2;PMS_P1;PMS_P2;Temp;Humidity;BMP_temperature;BMP_pressure;BME280_temperature;BME280_humidity;BME280_pressure;Samples;Min_cycle;Max_cycle;Signal;HPM_P1;HPM_P2
2022/09/09 00:00:53;;;;;;;7.80;4.78;;;16.30;99.90;;;;;;4989083;28;20057;-72
2022/09/09 00:03:26;;;;;;;7.57;5.13;;;15.30;99.90;;;;;;5003568;28;20048;-73
2022/09/09 00:06:20;;;;;;;6.72;4.50;;;15.40;99.90;;;;;;5005122;28;20038;-72
2022/09/09 00:09:18;;;;;;;9.10;5.50;;;15.40;99.90;;;;;;4989250;28;20056;-73
2022/09/09 00:11:47;;;;;;;8.80;5.10;;;15.30;99.90;;;;;;4985236;28;20405;-72
2022/09/09 00:14:54;;;;;;;8.80;5.43;;;15.30;99.90;;;;;;4983838;28;20125;-73
2022/09/09 00:17:58;;;;;;;5.68;5.07;;;15.20;99.90;;;;;;4981660;28;20050;-73
2022/09/09 00:20:41;;;;;;;8.15;5.85;;;15.20;99.90;;;;;;4971496;28;20099;-72
2022/09/09 00:23:26;;;;;;;7.43;5.53;;;15.20;99.90;;;;;;4982374;28;20443;-72
2022/09/09 00:26:02;;;;;;;;;;;15.20;99.90;;;;;;5001030;28;20045;-73
2022/09/09 00:28:32;;;;;;;8.45;6.20;;;15.20;99.90;;;;;;5000764;28;20004;-73
2022/09/09 00:31:08;;;;;;;10.35;6.38;;;15.10;99.90;;;;;;4965889;28;20468;-72
2022/09/09 00:33:34;;;;;;;10.90;5.97;;;15.10;99.90;;;;;;4984321;28;20050;-72
2022/09/09 00:36:02;;;;;;;10.15;6.63;;;15.10;99.90;;;;;;4999908;28;20045;-72
2022/09/09 00:38:42;;;;;;;8.77;6.38;;;15.10;99.90;;;;;;4969792;28;20038;-72
2022/09/09 00:41:17;;;;;;;8.50;6.47;;;15.00;99.90;;;;;;4982867;28;20052;-72
2022/09/09 00:43:55;;;;;;;9.98;5.93;;;15.00;99.90;;;;;;5005559;28;20528;-72
2022/09/09 00:46:44;;;;;;;6.28;5.20;;;15.00;99.90;;;;;;5001849;28;20577;-72
2022/09/09 00:49:24;;;;;;;9.18;6.10;;;15.00;99.90;;;;;;5005383;28;20062;-72
2022/09/09 00:52:05;;;;;;;7.85;5.85;;;14.90;99.90;;;;;;5001808;28;20053;-72
2022/09/09 00:54:36;;;;;;;9.95;5.97;;;14.90;99.90;;;;;;5005883;28;20107;-72
2022/09/09 00:57:12;;;;;;;9.73;5.47;;;14.90;99.90;;;;;;4988103;28;20033;-72
2022/09/09 00:59:46;;;;;;;14.48;5.85;;;14.90;99.90;;;;;;5006676;28;20091;-72
2022/09/09 01:02:26;;;;;;;12.73;5.45;;;14.90;99.90;;;;;;5004180;28;20041;-73
2022/09/09 01:04:52;;;;;;;6.78;4.90;;;14.80;99.90;;;;;;4988210;28;20107;-72
2022/09/09 01:07:18;;;;;;;6.95;4.88;;;14.80;99.90;;;;;;4988249;28;20049;-72
2022/09/09 01:09:59;;;;;;;9.00;4.55;;;14.70;99.90;;;;;;4985837;28;20498;-73
2022/09/09 01:12:46;;;;;;;7.35;4.43;;;14.70;99.90;;;;;;4988997;28;20101;-73
2022/09/09 01:15:33;;;;;;;6.97;4.72;;;14.70;99.90;;;;;;4984001;28;20504;-74
2022/09/09 01:18:07;;;;;;;6.05;4.72;;;14.70;99.90;;;;;;4987863;28;20046;-72
2022/09/09 01:20:57;;;;;;;6.55;4.70;;;14.70;99.90;;;;;;5006097;28;20042;-72
2022/09/09 01:23:43;;;;;;;5.85;4.45;;;14.70;99.90;;;;;;5002350;28;20038;-72
2022/09/09 01:26:09;;;;;;;7.43;5.10;;;14.70;99.90;;;;;;4997756;28;20042;-72
2022/09/09 01:28:36;;;;;;;7.90;5.15;;;14.60;99.90;;;;;;5003374;28;20367;-72
2022/09/09 01:31:05;;;;;;;5.85;4.78;;;14.60;99.90;;;;;;4989346;28;20115;-73
2022/09/09 01:33:32;;;;;;;7.15;4.78;;;14.60;99.90;;;;;;4988770;28;20388;-73
2022/09/09 01:36:09;;;;;;;5.85;4.72;;;14.80;99.90;;;;;;5003865;28;20486;-73
2022/09/09 01:38:36;;;;;;;9.27;4.88;;;14.60;99.90;;;;;;5004273;28;20036;-72
2022/09/09 01:41:02;;;;;;;6.63;4.90;;;14.50;99.90;;;;;;5004740;28;20117;-73
2022/09/09 01:43:28;;;;;;;7.05;4.57;;;14.50;99.90;;;;;;4988402;28;20041;-73
2022/09/09 01:45:58;;;;;;;5.75;5.22;;;14.50;99.90;;;;;;4988520;28;20053;-72
2022/09/09 01:48:24;;;;;;;8.60;4.88;;;14.50;99.90;;;;;;5000496;28;20042;-72
2022/09/09 01:50:50;;;;;;;6.50;5.03;;;14.50;99.90;;;;;;4985538;28;20209;-72
2022/09/09 01:53:18;;;;;;;7.45;5.15;;;14.50;99.90;;;;;;4971353;28;20188;-71
2022/09/09 01:56:20;;;;;;;13.55;5.78;;;14.50;99.90;;;;;;5000871;28;20069;-72
2022/09/09 01:59:11;;;;;;;9.23;5.65;;;14.50;99.90;;;;;;4985232;28;20126;-72
2022/09/09 02:01:57;;;;;;;9.68;6.20;;;14.50;99.90;;;;;;4988876;28;20082;-72
2022/09/09 02:04:28;;;;;;;7.97;6.05;;;14.50;99.90;;;;;;4986469;28;20084;-73
2022/09/09 02:06:59;;;;;;;10.18;6.18;;;14.50;99.90;;;;;;5004747;28;20046;-73
2022/09/09 02:09:26;;;;;;;9.75;6.65;;;14.50;99.90;;;;;;5003767;28;20030;-72
2022/09/09 02:12:00;;;;;;;8.20;6.43;;;14.50;99.90;;;;;;5007727;28;20060;-73
2022/09/09 02:14:30;;;;;;;;;;;14.50;99.90;;;;;;4973630;28;20073;-72
2022/09/09 02:17:20;;;;;;;8.48;6.60;;;14.40;99.90;;;;;;4991038;28;19925;-72
2022/09/09 02:19:50;;;;;;;11.50;7.10;;;14.40;99.90;;;;;;5007548;28;20489;-72
2022/09/09 02:22:19;;;;;;;9.98;6.40;;;14.40;99.90;;;;;;4989294;28;20072;-72
2022/09/09 02:24:46;;;;;;;11.80;8.02;;;15.20;99.90;;;;;;5008380;28;20052;-73
2022/09/09 02:27:12;;;;;;;10.25;8.05;;;14.40;99.90;;;;;;4990068;28;20042;-72
2022/09/09 02:29:42;;;;;;;12.35;7.32;;;14.40;99.90;;;;;;5005539;28;20437;-72
2022/09/09 02:32:13;;;;;;;7.88;7.07;;;14.40;99.90;;;;;;4985376;28;20077;-73
2022/09/09 02:34:44;;;;;;;11.73;7.65;;;14.40;99.90;;;;;;4976417;28;20376;-72
2022/09/09 02:37:11;;;;;;;11.75;7.38;;;14.40;99.90;;;;;;5006535;28;20045;-73
2022/09/09 02:39:37;;;;;;;8.63;7.13;;;15.40;99.90;;;;;;5008194;28;20050;-72
2022/09/09 02:42:05;;;;;;;15.50;7.97;;;14.40;99.90;;;;;;5008592;28;20077;-72
2022/09/09 02:44:31;;;;;;;14.60;7.85;;;14.50;99.90;;;;;;5007295;28;20049;-72
2022/09/09 02:47:10;;;;;;;9.75;7.60;;;14.50;99.90;;;;;;5010098;28;20042;-72
2022/09/09 02:50:13;;;;;;;10.30;8.27;;;14.40;99.90;;;;;;5009213;28;20042;-72
2022/09/09 02:52:46;;;;;;;11.77;7.60;;;14.40;99.90;;;;;;4985868;28;20041;-73
2022/09/09 02:55:34;;;;;;;11.23;7.68;;;14.40;99.90;;;;;;4973703;28;20096;-72
2022/09/09 02:58:05;;;;;;;9.43;7.63;;;14.40;99.90;;;;;;4970142;28;20053;-72
2022/09/09 03:00:32;;;;;;;11.70;7.60;;;14.40;99.90;;;;;;5006403;28;20050;-73
2022/09/09 03:02:58;;;;;;;14.75;7.50;;;14.40;99.90;;;;;;4990768;28;20422;-73
2022/09/09 03:05:24;;;;;;;9.95;7.22;;;14.40;99.90;;;;;;4973869;28;20038;-73
2022/09/09 03:07:50;;;;;;;9.98;7.85;;;14.40;99.90;;;;;;4973461;28;20041;-73
2022/09/09 03:10:16;;;;;;;10.60;7.40;;;14.40;99.90;;;;;;5004335;28;20058;-72
2022/09/09 03:12:42;;;;;;;8.68;7.55;;;14.40;99.90;;;;;;5003812;28;20052;-72
2022/09/09 03:15:09;;;;;;;11.90;7.60;;;14.50;99.90;;;;;;4994803;28;20038;-73
2022/09/09 03:17:36;;;;;;;15.35;7.25;;;14.50;99.90;;;;;;4990283;28;20459;-73
2022/09/09 03:20:03;;;;;;;10.30;7.40;;;14.50;99.90;;;;;;5007075;28;20112;-72
2022/09/09 03:22:29;;;;;;;9.43;7.43;;;14.50;99.90;;;;;;5005530;28;21356;-73
2022/09/09 03:24:55;;;;;;;10.27;7.00;;;14.50;99.90;;;;;;4974680;28;20042;-73
2022/09/09 03:27:20;;;;;;;7.53;6.38;;;14.50;99.90;;;;;;5006805;28;20038;-74
2022/09/09 03:29:46;;;;;;;10.48;6.80;;;14.50;99.90;;;;;;5007875;28;20046;-73
2022/09/09 03:32:13;;;;;;;12.40;6.55;;;14.50;99.90;;;;;;4988143;28;20049;-72
2022/09/09 03:34:42;;;;;;;11.25;6.40;;;14.50;99.90;;;;;;4967894;28;20046;-72
2022/09/09 03:37:07;;;;;;;6.15;5.55;;;14.60;99.90;;;;;;5007301;28;20045;-72
2022/09/09 03:39:33;;;;;;;11.55;5.78;;;14.60;99.90;;;;;;5007013;28;20050;-73
2022/09/09 03:41:58;;;;;;;8.52;6.05;;;14.50;99.90;;;;;;4988772;28;20677;-73
2022/09/09 03:44:24;;;;;;;7.07;5.47;;;14.60;99.90;;;;;;5008970;28;20045;-73
2022/09/09 03:46:49;;;;;;;11.50;5.97;;;14.60;99.90;;;;;;4988640;28;20127;-73
2022/09/09 03:49:16;;;;;;;7.10;5.45;;;14.60;99.90;;;;;;5009419;28;20374;-72
2022/09/09 03:51:42;;;;;;;8.45;5.65;;;14.60;99.90;;;;;;5000457;28;20112;-72
2022/09/09 03:54:10;;;;;;;8.65;5.45;;;14.60;99.90;;;;;;5004668;28;20050;-72
2022/09/09 03:56:36;;;;;;;6.28;4.78;;;14.60;99.90;;;;;;4991292;28;20042;-73
2022/09/09 03:59:02;;;;;;;8.63;5.68;;;14.60;99.90;;;;;;4989795;28;20169;-73
2022/09/09 04:01:28;;;;;;;5.82;4.93;;;14.50;99.90;;;;;;5002009;28;20038;-73
2022/09/09 04:03:55;;;;;;;5.97;4.50;;;15.00;99.90;;;;;;5007165;28;20448;-73
2022/09/09 04:06:21;;;;;;;9.77;5.40;;;14.60;99.90;;;;;;4972882;28;20140;-72
2022/09/09 04:08:48;;;;;;;7.55;4.75;;;14.60;99.90;;;;;;5006430;28;20046;-72
2022/09/09 04:11:15;;;;;;;4.57;4.10;;;14.60;99.90;;;;;;4985354;28;20074;-72
2022/09/09 04:13:41;;;;;;;7.05;4.80;;;14.60;99.90;;;;;;4986648;28;20634;-72
2022/09/09 04:16:10;;;;;;;8.10;4.22;;;14.60;99.90;;;;;;4989455;28;20050;-72
2022/09/09 04:18:35;;;;;;;5.30;3.80;;;14.60;99.90;;;;;;5006086;28;20054;-73
2022/09/09 04:21:02;;;;;;;10.68;5.00;;;14.60;99.90;;;;;;4987939;28;20050;-73
2022/09/09 04:23:33;;;;;;;5.38;4.63;;;14.60;99.90;;;;;;5006799;28;20080;-72
2022/09/09 04:26:00;;;;;;;6.53;4.40;;;14.60;99.90;;;;;;5006163;28;20049;-73
2022/09/09 04:28:28;;;;;;;4.88;3.72;;;14.60;99.90;;;;;;4996778;28;20057;-73
2022/09/09 04:30:54;;;;;;;8.10;5.05;;;14.60;99.90;;;;;;4986315;28;20074;-73
2022/09/09 04:33:20;;;;;;;4.72;4.28;;;15.50;99.90;;;;;;4982314;28;20092;-73
2022/09/09 04:35:48;;;;;;;5.32;4.30;;;15.40;99.90;;;;;;4999980;28;20038;-72
2022/09/09 04:38:15;;;;;;;6.47;4.60;;;14.60;99.90;;;;;;4965443;28;20080;-72
2022/09/09 04:40:47;;;;;;;5.45;4.35;;;14.60;99.90;;;;;;4982444;28;20034;-72
2022/09/09 04:43:14;;;;;;;6.32;4.60;;;14.60;99.90;;;;;;4980633;28;20050;-72
2022/09/09 04:45:41;;;;;;;8.95;4.88;;;14.60;99.90;;;;;;5000390;28;20038;-73
2022/09/09 04:48:07;;;;;;;7.43;4.18;;;14.70;99.90;;;;;;4983316;28;20137;-73
2022/09/09 04:50:33;;;;;;;6.60;4.85;;;14.70;99.90;;;;;;5000046;28;20077;-72
2022/09/09 04:53:04;;;;;;;7.20;5.18;;;14.70;99.90;;;;;;4999226;28;20092;-73
2022/09/09 04:55:31;;;;;;;6.97;4.65;;;15.40;99.90;;;;;;4982586;28;20509;-72
2022/09/09 04:57:57;;;;;;;4.47;4.07;;;14.70;99.90;;;;;;4981357;28;20107;-72
2022/09/09 05:00:23;;;;;;;6.57;5.68;;;14.70;99.90;;;;;;5000463;28;20038;-73
2022/09/09 05:02:48;;;;;;;7.40;5.20;;;14.70;99.90;;;;;;5000988;28;20037;-73
2022/09/09 05:05:14;;;;;;;6.55;5.22;;;14.70;99.90;;;;;;4983373;28;20045;-72
2022/09/09 05:07:41;;;;;;;6.00;5.50;;;14.70;99.90;;;;;;5000300;28;20498;-73
2022/09/09 05:10:07;;;;;;;8.90;5.30;;;14.80;99.90;;;;;;4964920;28;20103;-72
2022/09/09 05:12:33;;;;;;;8.30;4.53;;;14.70;99.90;;;;;;5000949;28;20397;-73
2022/09/09 05:14:59;;;;;;;6.28;5.57;;;14.70;99.90;;;;;;5003107;28;20041;-72
2022/09/09 05:17:24;;;;;;;11.15;5.80;;;14.70;99.90;;;;;;4990523;28;20554;-73
2022/09/09 05:19:50;;;;;;;6.75;6.03;;;14.60;99.90;;;;;;5004664;28;20038;-73
2022/09/09 05:22:20;;;;;;;7.80;5.82;;;14.60;99.90;;;;;;5006446;28;20045;-71
2022/09/09 05:24:45;;;;;;;8.85;6.25;;;14.70;99.90;;;;;;5005704;28;20046;-71
2022/09/09 05:27:12;;;;;;;7.65;6.90;;;14.60;99.90;;;;;;5005175;28;20044;-71
2022/09/09 05:29:38;;;;;;;7.55;6.63;;;14.60;99.90;;;;;;5006808;28;20045;-72
2022/09/09 05:32:04;;;;;;;7.70;6.18;;;14.60;99.90;;;;;;4971483;28;20050;-73
2022/09/09 05:34:30;;;;;;;7.05;6.35;;;14.60;99.90;;;;;;5001680;28;20716;-73
2022/09/09 05:36:55;;;;;;;8.55;6.20;;;14.60;99.90;;;;;;4972532;28;20132;-72
2022/09/09 05:39:21;;;;;;;9.00;6.95;;;14.60;99.90;;;;;;4985823;28;20059;-73
2022/09/09 05:41:46;;;;;;;9.30;7.43;;;15.10;99.90;;;;;;5005289;28;20041;-71
2022/09/09 05:44:13;;;;;;;6.62;6.02;;;14.60;99.90;;;;;;4301683;28;10021662;-72
2022/09/09 05:46:38;;;;;;;7.95;6.78;;;14.60;99.90;;;;;;5003084;28;20077;-71
2022/09/09 05:49:05;;;;;;;8.77;6.97;;;14.60;99.90;;;;;;5009507;28;20580;-71
2022/09/09 05:51:31;;;;;;;10.55;7.60;;;14.70;99.90;;;;;;5006097;28;20077;-72
2022/09/09 05:54:00;;;;;;;10.82;7.85;;;14.60;99.90;;;;;;5003802;28;20489;-71
2022/09/09 05:56:27;;;;;;;10.18;7.88;;;15.30;99.90;;;;;;4989971;28;20442;-73
2022/09/09 05:58:54;;;;;;;11.45;8.82;;;14.60;99.90;;;;;;5007921;28;20042;-71
2022/09/09 06:01:42;;;;;;;9.93;8.00;;;14.60;99.90;;;;;;5006255;28;20521;-71
2022/09/09 06:04:08;;;;;;;8.85;7.20;;;14.60;99.90;;;;;;5008868;28;20524;-71
2022/09/09 06:06:36;;;;;;;10.25;8.07;;;14.70;99.90;;;;;;5004742;28;20441;-71
2022/09/09 06:09:06;;;;;;;9.77;8.18;;;14.60;99.90;;;;;;4990657;28;20281;-75
2022/09/09 06:11:33;;;;;;;8.55;6.88;;;14.60;99.90;;;;;;4984182;28;20125;-75
2022/09/09 06:13:59;;;;;;;9.35;8.10;;;14.60;99.90;;;;;;4986146;28;20050;-70
2022/09/09 06:16:27;;;;;;;10.43;7.57;;;14.60;99.90;;;;;;5007497;28;20041;-72
2022/09/09 06:18:54;;;;;;;7.82;7.00;;;14.60;99.90;;;;;;4990858;28;20049;-71
2022/09/09 06:21:32;;;;;;;20.23;17.10;;;14.70;99.90;;;;;;4974366;28;20099;-72
2022/09/09 06:23:58;;;;;;;14.10;12.45;;;14.60;99.90;;;;;;4988265;28;20042;-72
2022/09/09 06:26:35;;;;;;;9.43;8.00;;;14.90;99.90;;;;;;5005941;28;20122;-72
2022/09/09 06:29:03;;;;;;;8.85;7.43;;;14.70;99.90;;;;;;4997962;28;20038;-76
2022/09/09 06:31:30;;;;;;;11.90;7.30;;;15.10;99.90;;;;;;5008268;28;20050;-76
2022/09/09 06:33:58;;;;;;;8.45;6.75;;;14.60;99.90;;;;;;4986200;28;20060;-76
2022/09/09 06:36:26;;;;;;;7.68;7.03;;;14.70;99.90;;;;;;4991533;28;20551;-72
2022/09/09 06:38:52;;;;;;;8.15;7.22;;;14.70;99.90;;;;;;5008958;28;20121;-72
2022/09/09 06:41:19;;;;;;;7.05;6.43;;;14.70;99.90;;;;;;4991501;28;20132;-71
2022/09/09 06:43:46;;;;;;;6.47;5.88;;;14.70;99.90;;;;;;4987150;28;20498;-72
2022/09/09 06:46:13;;;;;;;6.90;6.30;;;14.70;99.90;;;;;;4990015;28;20117;-74
2022/09/09 06:48:42;;;;;;;8.77;6.25;;;14.70;99.90;;;;;;4992216;28;20042;-72
2022/09/09 06:51:21;;;;;;;10.38;5.97;;;14.80;99.90;;;;;;5007241;28;20491;-73
2022/09/09 06:53:49;;;;;;;7.85;6.63;;;14.70;99.90;;;;;;4986491;28;20545;-76
2022/09/09 06:56:24;;;;;;;8.35;6.65;;;14.80;99.90;;;;;;4991484;28;20548;-74
2022/09/09 06:58:54;;;;;;;7.32;6.60;;;14.80;99.90;;;;;;4993266;28;20046;-75
2022/09/09 07:01:25;;;;;;;9.50;6.70;;;14.80;99.90;;;;;;4976672;28;20084;-73
2022/09/09 07:03:54;;;;;;;9.57;7.25;;;14.80;99.90;;;;;;4990383;28;20049;-72
2022/09/09 07:06:31;;;;;;;8.55;6.53;;;14.80;99.90;;;;;;4987060;28;20493;-72
2022/09/09 07:09:04;;;;;;;10.68;6.45;;;14.80;99.90;;;;;;4990076;28;20042;-71
2022/09/09 07:11:37;;;;;;;7.05;6.35;;;14.80;99.90;;;;;;4973918;28;20153;-72
2022/09/09 07:14:02;;;;;;;8.60;6.53;;;14.80;99.90;;;;;;5002840;28;20104;-74
2022/09/09 07:16:29;;;;;;;6.78;6.05;;;14.80;99.90;;;;;;4977748;28;20045;-73
2022/09/09 07:18:58;;;;;;;7.70;6.85;;;14.90;99.90;;;;;;5012539;28;20045;-74
2022/09/09 07:21:26;;;;;;;8.38;6.10;;;14.90;99.90;;;;;;4993918;28;20125;-71
2022/09/09 07:23:52;;;;;;;7.40;6.25;;;14.90;99.90;;;;;;5011427;28;20049;-75
2022/09/09 07:26:20;;;;;;;8.68;5.93;;;14.90;99.90;;;;;;4994586;28;20042;-70
2022/09/09 07:28:46;;;;;;;8.68;6.13;;;14.90;99.90;;;;;;5012378;28;20038;-70
2022/09/09 07:31:17;;;;;;;10.48;6.60;;;14.90;99.90;;;;;;5011104;28;20036;-74
2022/09/09 07:33:44;;;;;;;7.65;5.85;;;15.00;99.90;;;;;;5011733;28;20073;-75
2022/09/09 07:36:13;;;;;;;6.50;5.50;;;15.00;99.90;;;;;;4993625;28;20080;-74
2022/09/09 07:38:45;;;;;;;7.43;5.65;;;15.00;99.90;;;;;;4991231;28;20039;-75
2022/09/09 07:41:14;;;;;;;6.40;5.35;;;15.10;99.90;;;;;;4994380;28;20485;-75
2022/09/09 07:43:45;;;;;;;8.20;6.47;;;15.10;99.90;;;;;;4989467;28;20088;-71
2022/09/09 07:46:12;;;;;;;6.18;5.45;;;15.10;99.90;;;;;;5004631;28;20038;-71
2022/09/09 07:48:43;;;;;;;6.70;5.43;;;15.10;99.90;;;;;;5008126;28;20485;-70
2022/09/09 07:51:12;;;;;;;6.60;5.57;;;15.10;99.90;;;;;;4976404;28;20114;-71
2022/09/09 07:53:40;;;;;;;6.57;5.35;;;15.20;99.90;;;;;;5011329;28;20158;-71
2022/09/09 07:56:11;;;;;;;7.00;4.63;;;15.20;99.90;;;;;;4990944;28;20041;-71
2022/09/09 07:58:38;;;;;;;7.13;5.57;;;15.20;99.90;;;;;;5011406;28;20041;-71
2022/09/09 08:01:17;;;;;;;11.18;5.32;;;15.20;99.90;;;;;;4989859;28;20042;-74
2022/09/09 08:03:44;;;;;;;7.80;4.97;;;15.20;99.90;;;;;;5010732;28;20490;-73
2022/09/09 08:06:11;;;;;;;6.13;5.22;;;15.20;99.90;;;;;;4987636;28;20057;-74
2022/09/09 08:08:40;;;;;;;7.60;5.70;;;15.30;99.90;;;;;;4994516;28;20409;-70
2022/09/09 08:11:12;;;;;;;9.02;6.30;;;15.30;99.90;;;;;;5005580;28;20062;-71
2022/09/09 08:13:39;;;;;;;7.93;5.47;;;15.40;99.90;;;;;;4990213;28;20064;-72
2022/09/09 08:16:06;;;;;;;10.90;5.63;;;15.40;99.90;;;;;;4991905;28;20465;-73
2022/09/09 08:18:32;;;;;;;6.40;5.10;;;15.40;99.90;;;;;;4990564;28;20053;-73
2022/09/09 08:20:58;;;;;;;6.10;5.10;;;15.50;99.90;;;;;;5009217;28;20044;-73
2022/09/09 08:23:23;;;;;;;6.90;4.82;;;15.50;99.90;;;;;;4989029;28;20050;-74
2022/09/09 08:25:49;;;;;;;9.00;5.03;;;15.50;99.90;;;;;;4977600;28;20045;-71
2022/09/09 08:28:15;;;;;;;6.20;5.22;;;15.60;99.90;;;;;;4976984;28;20081;-70
2022/09/09 08:30:42;;;;;;;9.77;5.32;;;15.60;99.90;;;;;;4991737;28;20453;-75
2022/09/09 08:33:09;;;;;;;7.13;5.15;;;15.70;99.90;;;;;;4993511;28;20049;-74
2022/09/09 08:35:34;;;;;;;12.80;5.72;;;15.70;99.90;;;;;;4989502;28;20405;-73
2022/09/09 08:38:00;;;;;;;5.63;4.78;;;15.80;99.90;;;;;;4993401;28;20129;-73
2022/09/09 08:40:33;;;;;;;7.88;4.72;;;15.90;99.90;;;;;;4988828;28;20127;-73
2022/09/09 08:43:02;;;;;;;8.68;4.72;;;15.90;99.90;;;;;;4992792;28;20053;-72
2022/09/09 08:45:55;;;;;;;7.47;4.68;;;15.90;99.90;;;;;;5009232;28;20108;-70
2022/09/09 08:48:57;;;;;;;7.05;4.78;;;16.10;99.90;;;;;;4992640;28;20051;-74
2022/09/09 08:51:28;;;;;;;10.40;4.47;;;16.20;99.90;;;;;;4988426;28;20048;-72
2022/09/09 08:53:57;;;;;;;6.97;4.75;;;16.20;99.90;;;;;;5005345;28;20117;-74
2022/09/09 08:56:24;;;;;;;8.57;4.63;;;16.30;99.90;;;;;;5004783;28;20088;-73
2022/09/09 08:58:52;;;;;;;8.30;5.03;;;16.40;99.90;;;;;;4988887;28;20429;-73
2022/09/09 09:01:54;;;;;;;6.85;4.93;;;16.40;99.90;;;;;;4988124;28;20054;-73
2022/09/09 09:04:49;;;;;;;10.27;4.20;;;16.50;99.90;;;;;;5006337;28;20090;-73
2022/09/09 09:07:21;;;;;;;9.27;3.95;;;16.50;99.90;;;;;;4986791;28;20046;-73
2022/09/09 09:10:30;;;;;;;5.68;3.78;;;16.60;99.90;;;;;;5009748;28;20076;-74
2022/09/09 09:12:56;;;;;;;9.25;3.53;;;16.60;99.90;;;;;;4985556;28;20093;-72
2022/09/09 09:15:26;;;;;;;7.78;2.88;;;16.70;99.90;;;;;;4992639;28;20046;-79
2022/09/09 09:17:51;;;;;;;8.32;3.53;;;16.80;99.90;;;;;;5004749;28;20035;-83
2022/09/09 09:20:29;;;;;;;6.78;3.08;;;16.80;99.90;;;;;;4974598;28;20050;-80
2022/09/09 09:23:00;;;;;;;8.40;3.55;;;16.90;99.90;;;;;;4980123;28;21929;-76
2022/09/09 09:25:37;;;;;;;10.48;2.83;;;17.10;99.90;;;;;;4972697;28;20100;-78
2022/09/09 09:28:21;;;;;;;8.80;2.55;;;17.10;99.90;;;;;;5007481;28;20474;-76
2022/09/09 09:30:53;;;;;;;5.28;2.55;;;17.10;99.90;;;;;;4991972;28;20034;-76
2022/09/09 09:33:40;;;;;;;15.35;3.55;;;17.20;99.90;;;;;;4642342;28;9999764;-77
2022/09/09 09:36:08;;;;;;;7.85;2.20;;;17.60;99.90;;;;;;4971445;28;20295;-78
2022/09/09 09:38:35;;;;;;;7.53;2.30;;;17.30;99.90;;;;;;4973579;28;20531;-77
2022/09/09 09:41:01;;;;;;;9.63;2.75;;;17.80;99.90;;;;;;4989882;28;20037;-78
2022/09/09 09:43:33;;;;;;;8.30;1.77;;;17.30;99.90;;;;;;4973945;28;20096;-78
2022/09/09 09:45:59;;;;;;;8.82;2.38;;;17.40;99.90;;;;;;4982514;28;20890;-76
2022/09/09 09:48:27;;;;;;;8.77;2.05;;;17.40;99.90;;;;;;5003813;28;20034;-77
2022/09/09 09:51:10;;;;;;;10.40;2.72;;;17.50;99.90;;;;;;4987857;28;20042;-77
2022/09/09 09:53:37;;;;;;;9.90;2.72;;;17.50;99.90;;;;;;4974197;28;20061;-77
2022/09/09 09:56:06;;;;;;;8.77;2.65;;;17.50;99.90;;;;;;5005640;28;20057;-76
2022/09/09 09:58:38;;;;;;;7.30;2.20;;;17.40;99.90;;;;;;4989091;28;20787;-76
2022/09/09 10:01:04;;;;;;;9.57;2.08;;;17.40;99.90;;;;;;4974629;28;20355;-76
2022/09/09 10:03:32;;;;;;;7.07;2.55;;;17.40;99.90;;;;;;5008035;28;20050;-76
2022/09/09 10:05:58;;;;;;;13.13;2.88;;;17.50;99.90;;;;;;4989368;28;20494;-78
2022/09/09 10:08:25;;;;;;;12.68;2.47;;;17.50;99.90;;;;;;4990305;28;20042;-77
2022/09/09 10:11:39;;;;;;;10.80;2.72;;;17.50;99.90;;;;;;5002908;28;20115;-75
2022/09/09 10:14:09;;;;;;;10.10;2.17;;;17.50;99.90;;;;;;4917387;28;20057;-76
2022/09/09 10:16:52;;;;;;;7.50;2.25;;;17.50;99.90;;;;;;4974920;28;20060;-77
2022/09/09 10:19:27;;;;;;;11.05;2.83;;;17.40;99.90;;;;;;4988173;28;20030;-77
2022/09/09 10:21:52;;;;;;;;;;;17.50;99.90;;;;;;5004864;28;20046;-77
2022/09/09 10:24:44;;;;;;;5.43;2.17;;;17.50;99.90;;;;;;5003729;28;20245;-76
2022/09/09 10:27:22;;;;;;;7.82;2.70;;;17.60;99.90;;;;;;4998161;28;20046;-77
2022/09/09 10:30:12;;;;;;;8.77;2.22;;;17.60;99.90;;;;;;4990763;28;20497;-77
2022/09/09 10:33:03;;;;;;;6.30;1.90;;;17.70;99.90;;;;;;4985721;28;20500;-76
2022/09/09 10:35:58;;;;;;;6.65;1.80;;;17.80;99.90;;;;;;4989052;28;20457;-77
2022/09/09 10:38:47;;;;;;;9.98;2.10;;;18.00;99.90;;;;;;5004827;28;20030;-76
2022/09/09 10:41:18;;;;;;;5.90;1.77;;;18.00;99.90;;;;;;5005894;28;20120;-76
2022/09/09 10:44:13;;;;;;;7.28;1.77;;;18.10;99.90;;;;;;4976778;28;20095;-76
2022/09/09 10:47:15;;;;;;;7.50;2.10;;;18.10;99.90;;;;;;4990574;28;20050;-77
2022/09/09 10:49:52;;;;;;;6.50;1.60;;;18.20;99.90;;;;;;4990862;28;20109;-77
2022/09/09 10:52:36;;;;;;;7.03;1.35;;;18.20;99.90;;;;;;4989837;28;20041;-78
2022/09/09 10:55:18;;;;;;;12.23;2.00;;;18.20;99.90;;;;;;5008140;28;20053;-78
2022/09/09 10:57:49;;;;;;;10.25;1.85;;;18.20;99.90;;;;;;4967172;28;20039;-79
2022/09/09 11:00:23;;;;;;;11.25;2.22;;;18.30;99.90;;;;;;4987973;28;20095;-78
2022/09/09 11:03:16;;;;;;;10.18;1.73;;;18.70;99.90;;;;;;5005579;28;20045;-78
2022/09/09 11:05:46;;;;;;;7.77;1.50;;;18.40;99.90;;;;;;5008075;28;20041;-78
2022/09/09 11:08:20;;;;;;;8.00;1.48;;;18.50;99.90;;;;;;4993892;28;20038;-78
2022/09/09 11:11:12;;;;;;;8.77;1.73;;;18.70;99.90;;;;;;4993699;28;20061;-77
2022/09/09 11:14:05;;;;;;;6.35;0.95;;;18.70;99.90;;;;;;4989846;28;20078;-78
2022/09/09 11:16:59;;;;;;;7.82;2.00;;;18.80;99.90;;;;;;4989770;28;20049;-78
2022/09/09 11:19:44;;;;;;;4.75;1.10;;;18.80;99.90;;;;;;4990758;28;20168;-77
2022/09/09 11:22:25;;;;;;;5.97;1.13;;;18.80;99.90;;;;;;5004010;28;20532;-78
2022/09/09 11:24:57;;;;;;;5.85;1.70;;;18.80;99.90;;;;;;5006947;28;20053;-78
2022/09/09 11:27:37;;;;;;;6.18;1.52;;;18.90;99.90;;;;;;5011306;28;20062;-78
2022/09/09 11:30:24;;;;;;;4.97;0.88;;;18.90;99.90;;;;;;4990031;28;20133;-78
2022/09/09 11:33:22;;;;;;;7.72;1.67;;;18.90;99.90;;;;;;4993613;28;20104;-81
2022/09/09 11:36:19;;;;;;;7.07;1.70;;;18.80;99.90;;;;;;5001779;28;20103;-81
2022/09/09 11:38:47;;;;;;;10.38;1.63;;;18.80;99.90;;;;;;4993747;28;20046;-77
2022/09/09 11:41:15;;;;;;;7.78;1.25;;;18.80;99.90;;;;;;4986979;28;20046;-78
2022/09/09 11:43:52;;;;;;;5.38;1.10;;;18.00;99.90;;;;;;4994008;28;20060;-79
2022/09/09 11:46:22;;;;;;;6.60;1.15;;;18.70;99.90;;;;;;5002798;28;20046;-79
2022/09/09 11:49:00;;;;;;;8.48;1.23;;;18.90;99.90;;;;;;4992219;28;20037;-81
2022/09/09 11:51:31;;;;;;;6.95;1.77;;;18.80;99.90;;;;;;5006302;28;20134;-77
2022/09/09 11:54:02;;;;;;;7.57;1.40;;;18.80;99.90;;;;;;4991323;28;20042;-76
2022/09/09 11:56:31;;;;;;;3.53;0.85;;;18.80;99.90;;;;;;4993793;28;20038;-76
2022/09/09 11:59:03;;;;;;;5.20;1.23;;;18.80;99.90;;;;;;4991165;28;20103;-75
2022/09/09 12:01:45;;;;;;;5.38;1.10;;;18.80;99.90;;;;;;4639289;28;9999845;-74
2022/09/09 12:04:28;;;;;;;7.95;1.45;;;18.80;99.90;;;;;;5001759;28;20078;-74
2022/09/09 12:06:59;;;;;;;3.50;0.98;;;18.80;99.90;;;;;;4983090;28;20046;-74
2022/09/09 12:09:45;;;;;;;5.88;1.65;;;18.80;99.90;;;;;;5000116;28;20268;-74
2022/09/09 12:12:11;;;;;;;8.98;1.25;;;18.80;99.90;;;;;;5000383;28;20054;-73
2022/09/09 12:14:54;;;;;;;6.85;1.50;;;18.80;99.90;;;;;;5000196;28;20049;-74
2022/09/09 12:17:25;;;;;;;5.43;1.00;;;19.40;99.90;;;;;;4980564;28;20054;-74
2022/09/09 12:20:22;;;;;;;6.50;1.50;;;18.80;99.90;;;;;;5001953;28;20474;-74
2022/09/09 12:23:24;;;;;;;7.90;1.40;;;18.80;99.90;;;;;;5007040;28;20444;-72
2022/09/09 12:26:21;;;;;;;6.90;1.42;;;18.80;99.90;;;;;;5005774;28;20052;-74
2022/09/09 12:28:47;;;;;;;6.72;1.10;;;18.80;99.90;;;;;;5004608;28;20402;-75
2022/09/09 12:31:25;;;;;;;4.38;1.35;;;19.00;99.90;;;;;;4990375;28;20052;-75
2022/09/09 12:33:52;;;;;;;5.80;1.42;;;19.20;99.90;;;;;;4988290;28;20050;-75
2022/09/09 12:36:29;;;;;;;13.65;1.30;;;19.40;99.90;;;;;;5005926;28;20049;-74
2022/09/09 12:38:59;;;;;;;6.47;1.38;;;19.50;99.90;;;;;;4996644;28;20129;-75
2022/09/09 12:41:30;;;;;;;4.60;1.20;;;19.60;99.90;;;;;;4997678;28;20046;-73
2022/09/09 12:44:09;;;;;;;9.10;1.30;;;19.80;99.90;;;;;;4985612;28;20130;-74
2022/09/09 12:46:44;;;;;;;6.30;1.45;;;19.80;99.90;;;;;;5007564;28;20047;-76
2022/09/09 12:49:38;;;;;;;4.82;0.90;;;20.00;99.90;;;;;;5003305;28;20132;-75
2022/09/09 12:52:24;;;;;;;9.38;1.48;;;20.60;99.90;;;;;;5003674;28;20084;-75
2022/09/09 12:54:53;;;;;;;8.30;1.45;;;20.20;99.90;;;;;;5001818;28;20067;-74
2022/09/09 12:57:21;;;;;;;3.55;1.45;;;20.40;99.90;;;;;;4972723;28;20042;-73
2022/09/09 12:59:50;;;;;;;4.43;1.00;;;20.30;99.90;;;;;;4985580;28;20077;-74
2022/09/09 13:02:22;;;;;;;3.88;1.00;;;21.00;99.90;;;;;;4972049;28;20085;-75
2022/09/09 13:04:50;;;;;;;3.35;0.88;;;20.20;99.90;;;;;;5003465;28;20633;-74
2022/09/09 13:07:16;;;;;;;4.57;0.85;;;20.10;99.90;;;;;;4989631;28;20121;-80
2022/09/09 13:09:44;;;;;;;8.07;1.63;;;20.10;99.90;;;;;;4971923;28;20056;-81
2022/09/09 13:12:24;;;;;;;15.60;1.25;;;20.10;99.90;;;;;;4986301;28;20092;-81
2022/09/09 13:14:53;;;;;;;4.38;0.85;;;20.00;99.90;;;;;;4985903;28;20042;-82